createdAt,value
2019-04-04T00:01:30.720Z,5.47
2019-04-04T00:04:10.201Z,5.33
2019-04-04T00:06:41.375Z,5.09
2019-04-04T00:09:15.526Z,5.09
2019-04-04T00:11:46.459Z,5.35
2019-04-04T00:14:17.245Z,5.28
2019-04-04T00:16:48.854Z,5.26
2019-04-04T00:19:21.516Z,5.37
2019-04-04T00:21:52.640Z,5.34
2019-04-04T00:24:26.465Z,5.41
2019-04-04T00:26:57.565Z,5.43
2019-04-04T00:29:29.284Z,5.21
2019-04-04T00:32:00.087Z,5.22
2019-04-04T00:34:30.890Z,5.12
2019-04-04T00:37:04.398Z,4.95
2019-04-04T00:39:34.899Z,5.00
2019-04-04T00:42:05.637Z,5.13
2019-04-04T00:44:37.451Z,5.18
2019-04-04T00:47:09.083Z,5.13
2019-04-04T00:49:46.344Z,5.08
2019-04-04T00:52:17.946Z,4.98
2019-04-04T00:54:48.582Z,4.93
2019-04-04T00:57:21.976Z,4.89
2019-04-04T00:59:53.594Z,4.94
2019-04-04T01:02:27.233Z,4.84
2019-04-04T01:04:57.076Z,4.80
2019-04-04T01:07:35.759Z,4.78
2019-04-04T01:10:07.862Z,5.05
2019-04-04T01:12:38.756Z,4.91
2019-04-04T01:15:09.602Z,4.97
2019-04-04T01:17:40.583Z,4.88
2019-04-04T01:20:11.667Z,5.02
2019-04-04T01:22:42.379Z,4.84
2019-04-04T01:25:13.145Z,4.84
2019-04-04T01:27:43.788Z,5.20
2019-04-04T01:30:14.810Z,5.03
2019-04-04T01:32:46.256Z,5.13
2019-04-04T01:35:18.081Z,5.07
2019-04-04T01:37:48.957Z,4.77
2019-04-04T01:40:19.940Z,4.71
2019-04-04T01:42:57.213Z,4.93
2019-04-04T01:45:28.472Z,4.87
2019-04-04T01:47:59.349Z,4.86
2019-04-04T01:50:37.638Z,4.82
2019-04-04T01:53:08.401Z,4.90
2019-04-04T01:55:39.103Z,4.88
2019-04-04T01:58:12.028Z,4.92
2019-04-04T02:00:44.027Z,4.75
2019-04-04T02:03:15.711Z,4.87
2019-04-04T02:05:49.695Z,4.88
2019-04-04T02:08:20.713Z,4.97
2019-04-04T02:10:51.437Z,5.05
2019-04-04T02:13:22.169Z,5.10
2019-04-04T02:15:53.017Z,5.06
2019-04-04T02:18:24.881Z,5.05
2019-04-04T02:20:58.706Z,5.07
2019-04-04T02:23:31.381Z,4.94
2019-04-04T02:26:05.156Z,4.76
2019-04-04T02:28:39.643Z,4.97
2019-04-04T02:31:09.501Z,4.77
2019-04-04T02:33:41.129Z,4.91
2019-04-04T02:36:18.048Z,4.76
2019-04-04T02:39:07.648Z,4.81
2019-04-04T02:41:38.959Z,4.64
2019-04-04T02:44:09.801Z,4.60
2019-04-04T02:46:47.216Z,4.56
2019-04-04T02:49:17.968Z,4.68
2019-04-04T02:51:49.593Z,4.54
2019-04-04T02:54:24.190Z,4.54
2019-04-04T02:56:52.941Z,4.74
2019-04-04T02:59:24.083Z,4.67
2019-04-04T03:01:55.794Z,4.53
2019-04-04T03:04:26.773Z,4.61
2019-04-04T03:06:58.870Z,4.38
2019-04-04T03:09:29.612Z,4.28
2019-04-04T03:12:00.316Z,4.46
2019-04-04T03:14:30.990Z,4.45
2019-04-04T03:17:01.802Z,4.61
2019-04-04T03:19:43.814Z,4.69
2019-04-04T03:22:14.364Z,4.51
2019-04-04T03:24:46.283Z,4.60
2019-04-04T03:27:17.887Z,4.63
2019-04-04T03:29:48.908Z,4.56
2019-04-04T03:32:19.680Z,4.59
2019-04-04T03:34:51.854Z,4.76
2019-04-04T03:37:22.618Z,4.67
2019-04-04T03:39:53.639Z,4.63
2019-04-04T03:42:24.476Z,4.69
2019-04-04T03:44:55.185Z,4.71
2019-04-04T03:47:25.963Z,4.67
2019-04-04T03:49:57.935Z,4.90
2019-04-04T03:52:28.724Z,4.90
2019-04-04T03:54:59.480Z,5.04
2019-04-04T03:57:30.569Z,4.84
2019-04-04T04:00:05.918Z,4.82
2019-04-04T04:02:34.570Z,4.98
2019-04-04T04:05:16.792Z,4.64
2019-04-04T04:07:48.077Z,4.83
2019-04-04T04:10:20.659Z,4.67
2019-04-04T04:12:51.394Z,4.83
2019-04-04T04:15:22.509Z,4.83
2019-04-04T04:17:53.274Z,4.77
2019-04-04T04:20:24.080Z,4.53
2019-04-04T04:22:54.771Z,4.39
2019-04-04T04:25:25.526Z,4.41
2019-04-04T04:27:56.275Z,4.62
2019-04-04T04:30:26.944Z,4.80
2019-04-04T04:32:57.731Z,4.56
2019-04-04T04:35:28.753Z,4.63
2019-04-04T04:38:00.268Z,4.69
2019-04-04T04:40:31.036Z,4.53
2019-04-04T04:43:02.515Z,4.67
2019-04-04T04:45:35.283Z,4.66
2019-04-04T04:48:07.081Z,4.79
2019-04-04T04:50:40.099Z,4.81
2019-04-04T04:53:10.924Z,4.73
2019-04-04T04:55:52.065Z,4.72
2019-04-04T04:58:22.835Z,4.71
2019-04-04T05:00:53.693Z,4.63
2019-04-04T05:03:30.726Z,4.41
2019-04-04T05:06:03.333Z,4.41
2019-04-04T05:08:39.032Z,4.45
2019-04-04T05:11:14.452Z,4.37
2019-04-04T05:13:44.299Z,4.62
2019-04-04T05:16:16.899Z,4.32
2019-04-04T05:18:48.209Z,4.63
2019-04-04T05:21:24.761Z,4.60
2019-04-04T05:23:51.461Z,4.59
2019-04-04T05:26:23.803Z,4.33
2019-04-04T05:28:56.974Z,4.58
2019-04-04T05:31:28.341Z,4.46
2019-04-04T05:34:00.523Z,4.66
2019-04-04T05:36:36.046Z,4.65
2019-04-04T05:39:06.882Z,4.58
2019-04-04T05:41:37.609Z,4.53
2019-04-04T05:44:09.961Z,4.38
2019-04-04T05:46:40.847Z,4.86
2019-04-04T05:49:11.636Z,5.00
2019-04-04T05:51:42.293Z,5.07
2019-04-04T05:54:14.295Z,4.90
2019-04-04T05:56:48.589Z,5.21
2019-04-04T05:59:18.780Z,5.13
2019-04-04T06:01:54.804Z,5.25
2019-04-04T06:04:25.858Z,5.13
2019-04-04T06:06:56.653Z,5.21
2019-04-04T06:09:27.409Z,5.37
2019-04-04T06:11:58.329Z,5.45
2019-04-04T06:14:31.440Z,5.52
2019-04-04T06:17:03.185Z,5.49
2019-04-04T06:19:34.290Z,5.52
2019-04-04T06:22:52.005Z,5.53
2019-04-04T06:26:12.846Z,5.54
2019-04-04T08:19:37.483Z,11.03
2019-04-04T08:22:14.106Z,10.67
2019-04-04T08:30:54.654Z,10.67
2019-04-04T08:33:26.840Z,10.85
2019-04-04T08:36:06.173Z,11.05
2019-04-04T08:39:02.418Z,10.62
2019-04-04T08:42:48.709Z,10.55
2019-04-04T08:45:20.385Z,10.71
2019-04-04T08:47:52.710Z,10.82
2019-04-04T08:50:23.774Z,10.83
2019-04-04T08:53:01.475Z,11.41
2019-04-04T08:55:33.019Z,12.02
2019-04-04T08:58:05.615Z,12.56
2019-04-04T09:00:36.519Z,12.20
2019-04-04T09:03:08.848Z,11.44
2019-04-04T09:05:42.632Z,11.15
2019-04-04T09:08:14.747Z,10.64
2019-04-04T09:10:45.629Z,11.69
2019-04-04T09:13:16.704Z,10.79
2019-04-04T09:15:47.569Z,10.99
2019-04-04T09:18:18.393Z,10.81
2019-04-04T09:20:49.463Z,10.71
2019-04-04T09:23:20.730Z,10.75
2019-04-04T09:26:04.968Z,10.70
2019-04-04T09:28:25.826Z,10.80
2019-04-04T09:30:56.965Z,10.80
2019-04-04T09:33:27.929Z,10.95
2019-04-04T09:36:07.918Z,11.12
2019-04-04T09:38:41.115Z,11.20
2019-04-04T09:41:12.041Z,11.57
2019-04-04T09:43:43.034Z,11.47
2019-04-04T09:46:14.878Z,11.48
2019-04-04T09:48:48.712Z,11.56
2019-04-04T09:51:19.721Z,12.03
2019-04-04T09:53:53.185Z,12.78
2019-04-04T09:56:23.749Z,12.43
2019-04-04T09:58:55.169Z,12.30
2019-04-04T10:01:26.818Z,12.28
2019-04-04T10:03:58.629Z,12.61
2019-04-04T10:06:34.817Z,12.71
2019-04-04T10:09:15.830Z,12.95
2019-04-04T10:12:58.067Z,12.96
2019-04-04T10:15:29.008Z,13.52
2019-04-04T10:18:05.041Z,14.60
2019-04-04T10:20:38.047Z,16.67
2019-04-04T10:23:09.212Z,18.13
2019-04-04T10:25:44.674Z,18.58
2019-04-04T10:28:19.632Z,20.32
2019-04-04T10:30:51.706Z,22.14
2019-04-04T10:33:29.469Z,20.24
2019-04-04T10:39:53.772Z,21.04
2019-04-04T10:42:27.127Z,20.59
2019-04-04T10:45:08.537Z,21.16
2019-04-04T10:47:39.955Z,22.87
2019-04-04T10:50:16.672Z,24.38
2019-04-04T10:57:27.786Z,25.68
2019-04-04T11:03:49.745Z,24.82
2019-04-04T11:06:20.604Z,26.30
2019-04-04T11:08:52.111Z,26.66
2019-04-04T11:11:27.048Z,27.26
2019-04-04T11:13:58.309Z,25.95
2019-04-04T11:16:34.131Z,25.08
2019-04-04T11:19:05.751Z,24.53
2019-04-04T11:21:49.813Z,23.85
2019-04-04T11:24:23.736Z,22.64
2019-04-04T11:27:19.231Z,22.41
2019-04-04T11:40:37.069Z,19.82
2019-04-04T11:43:43.265Z,20.18
2019-04-04T11:46:51.109Z,20.70
2019-04-04T11:49:24.573Z,20.99
2019-04-04T11:55:16.845Z,19.72
2019-04-04T12:00:28.147Z,18.55
2019-04-04T12:03:03.236Z,18.23
2019-04-04T12:05:37.120Z,18.21
2019-04-04T12:08:09.933Z,18.42
2019-04-04T12:10:44.394Z,18.15
2019-04-04T12:14:09.721Z,18.21
2019-04-04T12:16:55.218Z,18.09
2019-04-04T12:19:40.787Z,19.10
2019-04-04T12:22:14.762Z,19.67
2019-04-04T12:24:55.594Z,19.65
2019-04-04T12:27:29.611Z,19.83
2019-04-04T12:30:20.667Z,19.44
2019-04-04T12:32:52.017Z,18.85
2019-04-04T12:35:33.971Z,19.02
2019-04-04T12:38:14.552Z,19.62
2019-04-04T12:40:46.595Z,20.06
2019-04-04T12:43:21.732Z,18.62
2019-04-04T12:45:54.786Z,17.69
2019-04-04T12:48:29.186Z,17.67
2019-04-04T12:51:25.645Z,18.63
2019-04-04T12:53:59.753Z,19.75
2019-04-04T12:56:35.831Z,20.25
2019-04-04T12:59:38.341Z,20.56
2019-04-04T13:03:13.528Z,20.05
2019-04-04T13:05:51.059Z,19.84
2019-04-04T13:10:11.472Z,19.42
2019-04-04T13:12:42.688Z,19.72
2019-04-04T13:18:20.809Z,21.11
2019-04-04T13:29:54.063Z,20.24
2019-04-04T13:32:39.587Z,19.00
2019-04-04T13:39:14.892Z,18.05
2019-04-04T13:42:07.689Z,20.92
2019-04-04T13:45:15.143Z,19.79
2019-04-04T13:47:46.906Z,18.69
2019-04-04T13:50:21.034Z,18.44
2019-04-04T13:52:51.967Z,17.68
2019-04-04T13:55:25.134Z,19.45
2019-04-04T13:57:56.346Z,21.16
2019-04-04T14:00:28.704Z,20.10
2019-04-04T14:02:59.955Z,21.37
2019-04-04T14:05:31.891Z,20.39
2019-04-04T14:08:02.936Z,20.36
2019-04-04T14:10:36.159Z,21.22
2019-04-04T14:13:12.063Z,22.08
2019-04-04T14:15:44.820Z,20.48
2019-04-04T14:18:23.551Z,19.65
2019-04-04T14:21:05.490Z,18.68
2019-04-04T14:23:38.126Z,18.14
2019-04-04T14:26:08.789Z,18.72
2019-04-04T14:28:42.508Z,19.12
2019-04-04T14:31:13.433Z,18.86
2019-04-04T14:33:46.841Z,19.00
2019-04-04T14:36:19.765Z,18.20
2019-04-04T14:38:53.230Z,17.41
2019-04-04T14:41:51.748Z,17.20
2019-04-04T14:53:14.574Z,16.12
2019-04-04T14:56:04.755Z,14.97
2019-04-04T14:58:45.131Z,14.65
2019-04-04T15:01:17.570Z,14.65
2019-04-04T15:03:51.800Z,14.40
2019-04-04T15:06:27.664Z,14.26
2019-04-04T15:09:11.006Z,14.10
2019-04-04T15:11:42.426Z,14.26
2019-04-04T15:14:14.999Z,14.33
2019-04-04T15:16:48.181Z,14.03
2019-04-04T15:19:20.019Z,13.93
2019-04-04T15:21:51.837Z,13.70
2019-04-04T15:24:22.987Z,13.83
2019-04-04T15:27:00.781Z,13.93
2019-04-04T15:29:52.321Z,13.95
2019-04-04T15:32:24.355Z,13.75
2019-04-04T15:34:55.932Z,13.89
2019-04-04T15:37:26.806Z,13.99
2019-04-04T15:39:58.626Z,14.03
2019-04-04T15:42:29.456Z,13.62
2019-04-04T15:45:00.401Z,14.04
2019-04-04T15:47:31.306Z,14.17
2019-04-04T15:50:02.309Z,14.08
2019-04-04T15:52:33.063Z,13.99
2019-04-04T15:55:04.075Z,14.08
2019-04-04T15:57:35.376Z,14.11
2019-04-04T16:00:07.806Z,14.22
2019-04-04T16:02:38.888Z,14.04
2019-04-04T16:05:10.442Z,13.91
2019-04-04T16:07:41.229Z,13.76
2019-04-04T16:10:12.333Z,13.74
2019-04-04T16:12:43.133Z,13.64
2019-04-04T16:15:14.509Z,13.77
2019-04-04T16:17:45.291Z,13.79
2019-04-04T16:20:16.912Z,13.79
2019-04-04T16:22:48.195Z,13.66
2019-04-04T16:25:19.136Z,13.41
2019-04-04T16:27:49.866Z,13.40
2019-04-04T16:30:21.004Z,13.44
2019-04-04T16:32:52.141Z,13.21
2019-04-04T16:35:23.065Z,12.92
2019-04-04T16:37:58.554Z,12.88
2019-04-04T16:40:29.374Z,12.93
2019-04-04T16:43:00.285Z,13.00
2019-04-04T16:45:31.591Z,13.02
2019-04-04T16:48:02.433Z,12.97
2019-04-04T16:50:33.305Z,12.65
2019-04-04T16:53:04.627Z,12.69
2019-04-04T16:55:36.142Z,12.81
2019-04-04T16:58:07.425Z,12.79
2019-04-04T17:00:38.813Z,12.78
2019-04-04T17:03:09.677Z,12.74
2019-04-04T17:05:42.772Z,12.63
2019-04-04T17:08:14.838Z,12.38
2019-04-04T17:10:45.712Z,12.30
2019-04-04T17:13:19.721Z,12.46
2019-04-04T17:15:50.433Z,12.42
2019-04-04T17:18:21.268Z,12.37
2019-04-04T17:20:52.025Z,12.32
2019-04-04T17:23:22.764Z,12.30
2019-04-04T17:25:53.806Z,12.34
2019-04-04T17:28:24.818Z,12.36
2019-04-04T17:30:55.631Z,12.34
2019-04-04T17:33:26.576Z,12.40
2019-04-04T17:36:01.305Z,12.20
2019-04-04T17:38:32.423Z,12.14
2019-04-04T17:41:09.957Z,12.34
2019-04-04T17:43:41.281Z,12.38
2019-04-04T17:46:14.189Z,12.12
2019-04-04T17:48:46.062Z,12.06
2019-04-04T17:51:23.848Z,12.04
2019-04-04T17:53:54.749Z,11.78
2019-04-04T17:56:26.046Z,11.64
2019-04-04T17:58:57.735Z,11.53
2019-04-04T18:01:48.022Z,11.38
2019-04-04T18:04:19.037Z,11.20
2019-04-04T18:06:49.728Z,11.13
2019-04-04T18:09:31.202Z,11.15
2019-04-04T18:11:52.890Z,10.94
2019-04-04T18:14:23.748Z,10.92
2019-04-04T18:16:55.402Z,11.00
2019-04-04T18:19:26.208Z,10.68
2019-04-04T18:21:57.075Z,10.80
2019-04-04T18:24:28.162Z,10.82
2019-04-04T18:27:00.659Z,10.67
2019-04-04T18:29:31.304Z,10.67
2019-04-04T18:32:02.155Z,10.77
2019-04-04T18:34:32.961Z,10.68
2019-04-04T18:37:05.164Z,10.75
2019-04-04T18:39:37.224Z,10.48
2019-04-04T18:42:08.110Z,10.67
2019-04-04T18:44:39.723Z,10.35
2019-04-04T18:47:10.944Z,10.09
2019-04-04T18:49:42.059Z,10.01
2019-04-04T18:52:13.952Z,10.01
2019-04-04T18:54:44.710Z,10.10
2019-04-04T18:57:15.462Z,10.22
2019-04-04T18:59:46.304Z,10.12
2019-04-04T19:02:17.027Z,10.16
2019-04-04T19:04:48.547Z,10.07
2019-04-04T19:07:20.414Z,10.05
2019-04-04T19:09:52.679Z,10.03
2019-04-04T19:12:23.509Z,10.04
2019-04-04T19:15:00.744Z,10.16
2019-04-04T19:17:31.755Z,9.79
2019-04-04T19:20:03.225Z,9.98
2019-04-04T19:22:33.954Z,9.98
2019-04-04T19:25:05.103Z,9.92
2019-04-04T19:27:35.836Z,9.86
2019-04-04T19:30:09.002Z,9.88
2019-04-04T19:32:39.646Z,9.89
2019-04-04T19:35:11.030Z,9.94
2019-04-04T19:37:41.717Z,9.88
2019-04-04T19:40:12.814Z,9.96
2019-04-04T19:42:43.533Z,9.76
2019-04-04T19:45:15.851Z,9.76
2019-04-04T19:47:46.743Z,9.81
2019-04-04T19:50:17.901Z,9.82
2019-04-04T19:52:48.706Z,9.68
2019-04-04T19:55:19.362Z,9.81
2019-04-04T19:57:50.319Z,9.61
2019-04-04T20:00:21.359Z,9.61
2019-04-04T20:02:52.064Z,9.50
2019-04-04T20:05:23.052Z,9.52
2019-04-04T20:07:53.736Z,9.75
2019-04-04T20:10:24.358Z,9.77
2019-04-04T20:12:55.460Z,9.59
2019-04-04T20:15:26.121Z,9.50
2019-04-04T20:17:56.822Z,9.45
2019-04-04T20:20:27.512Z,9.29
2019-04-04T20:22:58.332Z,9.26
2019-04-04T20:25:29.029Z,9.51
2019-04-04T20:28:01.657Z,9.33
2019-04-04T20:30:39.731Z,9.31
2019-04-04T20:33:14.447Z,9.20
2019-04-04T20:35:45.152Z,9.08
2019-04-04T20:38:15.952Z,9.25
2019-04-04T20:40:46.647Z,9.21
2019-04-04T20:43:17.462Z,9.00
2019-04-04T20:45:48.289Z,8.92
2019-04-04T20:48:18.998Z,9.01
2019-04-04T20:50:49.988Z,9.02
2019-04-04T20:53:22.112Z,8.98
2019-04-04T20:55:53.147Z,9.01
2019-04-04T20:58:23.821Z,8.95
2019-04-04T21:00:54.591Z,8.93
2019-04-04T21:03:25.273Z,9.05
2019-04-04T21:05:55.983Z,9.00
2019-04-04T21:08:26.695Z,9.29
2019-04-04T21:10:57.409Z,9.05
2019-04-04T21:13:28.496Z,8.88
2019-04-04T21:15:59.197Z,8.73
2019-04-04T21:18:29.851Z,8.74
2019-04-04T21:21:00.581Z,8.82
2019-04-04T21:23:31.571Z,8.53
2019-04-04T21:26:02.288Z,8.77
2019-04-04T21:28:32.951Z,8.70
2019-04-04T21:31:04.094Z,8.61
2019-04-04T21:33:37.458Z,8.64
2019-04-04T21:36:08.123Z,8.71
2019-04-04T21:38:41.966Z,8.53
2019-04-04T21:41:12.599Z,8.60
2019-04-04T21:43:44.052Z,8.47
2019-04-04T21:46:14.709Z,8.70
2019-04-04T21:48:45.332Z,8.60
2019-04-04T21:51:16.051Z,8.65
2019-04-04T21:53:46.699Z,8.68
2019-04-04T21:56:22.232Z,8.61
2019-04-04T21:58:52.986Z,8.67
2019-04-04T22:01:23.650Z,8.58
2019-04-04T22:03:54.489Z,8.45
2019-04-04T22:06:25.139Z,8.35
2019-04-04T22:08:55.899Z,8.27
2019-04-04T22:11:26.609Z,8.03
2019-04-04T22:13:57.424Z,8.15
2019-04-04T22:16:28.572Z,8.20
2019-04-04T22:18:59.326Z,8.13
2019-04-04T22:21:30.089Z,8.12
2019-04-04T22:24:01.987Z,8.12
2019-04-04T22:26:32.698Z,8.09
2019-04-04T22:29:04.458Z,8.07
2019-04-04T22:31:35.195Z,8.08
2019-04-04T22:34:06.334Z,8.20
2019-04-04T22:36:36.990Z,8.02
2019-04-04T22:39:09.278Z,7.93
2019-04-04T22:41:40.079Z,8.04
2019-04-04T22:44:10.850Z,7.92
2019-04-04T22:46:42.571Z,7.97
2019-04-04T22:49:15.216Z,7.84
2019-04-04T22:51:46.738Z,7.70
2019-04-04T22:54:18.045Z,7.69
2019-04-04T22:56:48.714Z,7.85
2019-04-04T22:59:20.906Z,7.62
2019-04-04T23:01:51.745Z,7.83
2019-04-04T23:04:23.318Z,7.65
2019-04-04T23:06:54.138Z,7.72
2019-04-04T23:09:24.831Z,7.56
2019-04-04T23:11:55.424Z,7.55
2019-04-04T23:14:26.611Z,7.60
2019-04-04T23:16:57.818Z,7.64
2019-04-04T23:19:30.603Z,7.55
2019-04-04T23:22:02.190Z,7.65
2019-04-04T23:24:35.221Z,7.53
2019-04-04T23:27:15.415Z,7.33
2019-04-04T23:29:46.246Z,7.47
2019-04-04T23:32:17.038Z,7.38
2019-04-04T23:35:02.596Z,7.46
2019-04-04T23:37:33.935Z,7.42
2019-04-04T23:40:05.655Z,7.33
2019-04-04T23:42:38.287Z,7.38
2019-04-04T23:45:14.112Z,7.45
2019-04-04T23:47:47.489Z,7.45
2019-04-04T23:50:19.308Z,7.15
2019-04-04T23:52:50.501Z,7.25
2019-04-04T23:55:25.194Z,7.26
2019-04-04T23:58:04.567Z,7.15
